RESULTATS »

INSCRITS PRESENTATS ACABEN RETIRATS DESQUALIFICATS DIST. TRAM 1 DIST. TRAM 2 DIST. TRAM 3 TEMP. EXT TEMP. AIGUA
0 0 0 0 750 20 5 0 0

CLASSIFICACIÓ

MASCULÍ FEMENÍ CATEGORIES CLUBS (MASCULINA) CLUBS (FEMENINA) INDIVIDUALS GRUPS D'EDAT

LLOCDORSALNOMCLUBCAT.T.META| P.Tram 1 || P.Tram 2 |Km/hTEMPS| P.Tram 3 |PARC_1PARC_2
1 3509ANAIS RIVAS TORRESC.N. MATAROG20-24F00:33:29000:00:00000:00:000.0000:00:00000:00:000:00:000:00:00
2 1810LAURA GOMEZ RAMONC.N. SABADELLG17-19F00:35:06000:00:00000:00:000.0000:00:00000:00:000:00:000:00:00
3 1988BELEN HIDALGO VALLSC.T.S.J. ABADESSESG35-39F00:35:22000:00:00000:00:000.0000:00:00000:00:000:00:000:00:00
4 1992MONTSE GALBANY FUSTEC.D. FASTTRIATLONG40-44F00:36:23000:00:00000:00:000.0000:00:00000:00:000:00:000:00:00
5 5138MIRIAM LAGUNA ARANDALLICENCIA DE DIAG30-34F00:36:30000:00:00000:00:000.0000:00:00000:00:000:00:000:00:00
6 33SARA LOEHR MUÑOZC.N. MATAROG25-29F00:36:35000:00:00000:00:000.0000:00:00000:00:000:00:000:00:00
7 95CRISTINA PASTOR GARCIAINDEPENDENTG30-34F00:36:36000:00:00000:00:000.0000:00:00000:00:000:00:000:00:00
8 4070SUSANA CASTAN SALINASCLUB TRIATLO RUNNERSWORLDG40-44F00:36:51000:00:00000:00:000.0000:00:00000:00:000:00:000:00:00
9 5201DIANA LÓPEZ MARTÍNEZLLICENCIA DE DIAG30-34F00:37:11000:00:00000:00:000.0000:00:00000:00:000:00:000:00:00
10 1814LAIA PI BOLTAC.N. CATALUNYAG20-24F00:37:49000:00:00000:00:000.0000:00:00000:00:000:00:000:00:00
11 1893ANGELS BOSCH CAMPRECIOSCLUB POLIESPORTIU PUIGCERG45-49F00:38:32000:00:00000:00:000.0000:00:00000:00:000:00:000:00:00
12 6165NINA WINELLICENCIA DE DIAG30-34F00:38:37000:00:00000:00:000.0000:00:00000:00:000:00:000:00:00
13 1929NEREIDA PUJOL ARIASCLUB ESPORTIU CUBE MANRESG35-39F00:38:38000:00:00000:00:000.0000:00:00000:00:000:00:000:00:00
14 4057MONTSE MELGAR LARACLUB ESPORTIU CALAFELL RUG30-34F00:38:38000:00:00000:00:000.0000:00:00000:00:000:00:000:00:00
15 1825CLAUDIA LUNA BONACHERAC.N. MATAROG16-17F00:38:40000:00:00000:00:000.0000:00:00000:00:000:00:000:00:00
16 3503GLÒRIA ESPINAR MAQUEDACLUB WATERPOLO FIGUERESG25-29F00:39:05000:00:00000:00:000.0000:00:00000:00:000:00:000:00:00
17 6040MERCE SEGURA GIMENEZLLICENCIA DE DIAG30-34F00:39:10000:00:00000:00:000.0000:00:00000:00:000:00:000:00:00
18 5161NURIA HERNANDEZ ROVIRALLICENCIA DE DIAG35-39F00:40:28000:00:00000:00:000.0000:00:00000:00:000:00:000:00:00
19 1829HELIA ROCHA IÑIGOC.N. MATAROG20-24F00:40:32000:00:00000:00:000.0000:00:00000:00:000:00:000:00:00
20 6180M.JOSE MUÑOZ SANTAMANSSUHECA.COM TRIATLOG30-34F00:41:02000:00:00000:00:000.0000:00:00000:00:000:00:000:00:00
21 3593MARAVILLAS MONTOYA NAVARRVILADECANS TRIATLOG40-44F00:41:03000:00:00000:00:000.0000:00:00000:00:000:00:000:00:00
22 5015GEMMA SAURET VIDALLLICENCIA DE DIAG25-29F00:41:17000:00:00000:00:000.0000:00:00000:00:000:00:000:00:00
23 6091EMELIE LEEWENSLLICENCIA DE DIAG40-44F00:41:37000:00:00000:00:000.0000:00:00000:00:000:00:000:00:00
24 1898DELIA BANUS PEDRENYCLUB NATACIÓ SITGESG30-34F00:41:39000:00:00000:00:000.0000:00:00000:00:000:00:000:00:00
25 3529CHIARA TRONCARELLIC.E. PICORNELLG25-29F00:41:45000:00:00000:00:000.0000:00:00000:00:000:00:000:00:00
26 5038CLARA PEY PASCUALLLICENCIA DE DIAG35-39F00:41:48000:00:00000:00:000.0000:00:00000:00:000:00:000:00:00
27 5254VERÒNICA HUGUET PUIGLLICENCIA DE DIAG35-39F00:42:01000:00:00000:00:000.0000:00:00000:00:000:00:000:00:00
28 5057MARIA ALZAMORA BAUZALLICENCIA DE DIAG35-39F00:42:10000:00:00000:00:000.0000:00:00000:00:000:00:000:00:00
29 3580ANA HERNANDEZ ROLDANTRIATL´H  C.E. L´HOSPITALG30-34F00:42:16000:00:00000:00:000.0000:00:00000:00:000:00:000:00:00
30 3553LAIA MARTIN MAGDALENAGAVA TRIATLOG16-17F00:42:24000:00:00000:00:000.0000:00:00000:00:000:00:000:00:00
31 6105LIDIA GALLEGO BENITEZLLICENCIA DE DIAG40-44F00:42:24000:00:00000:00:000.0000:00:00000:00:000:00:000:00:00
32 110SÍLVIA GUZMÁN GARCÍASPINNINGDELBUENO.COMG25-29F00:42:47000:00:00000:00:000.0000:00:00000:00:000:00:000:00:00
33 3540MAJE RODRÍGUEZ ARIASC.A. RIBAGORÇANAG30-34F00:42:50000:00:00000:00:000.0000:00:00000:00:000:00:000:00:00
34 114LIDIA URBAN MURILLOGAVA TRIATLOG45-49F00:42:51000:00:00000:00:000.0000:00:00000:00:000:00:000:00:00
35 4016LIDIA ALBUJAR VIDALBARCELONA DRAGONS TRIATHLG30-34F00:42:51000:00:00000:00:000.0000:00:00000:00:000:00:000:00:00
36 6076MÓNICA FERNÁNDEZ CASTROLLICENCIA DE DIAG35-39F00:43:06000:00:00000:00:000.0000:00:00000:00:000:00:000:00:00
37 6079TERE RAMOS SOTELOLLICENCIA DE DIAG35-39F00:43:14000:00:00000:00:000.0000:00:00000:00:000:00:000:00:00
38 25JUDITH DIAZ BATLLECLUB NATACIO SITGESG35-39F00:43:44000:00:00000:00:000.0000:00:00000:00:000:00:000:00:00
39 1970NURI LOZADA ESPÍCLUB NATACIO SITGESG40-44F00:43:44000:00:00000:00:000.0000:00:00000:00:000:00:000:00:00
40 5006LAIA CAMBRONERO GINÉSLLICENCIA DE DIAG30-34F00:43:45000:00:00000:00:000.0000:00:00000:00:000:00:000:00:00
41 6003SOFIA BARBERÀ PEREZLLICENCIA DE DIAG35-39F00:43:51000:00:00000:00:000.0000:00:00000:00:000:00:000:00:00
42 63JOANA NATACHA SILVA PEREITRIATLO VILANOVAG30-34F00:44:09000:00:00000:00:000.0000:00:00000:00:000:00:000:00:00
43 5142NÚRIA DE LA FUENTELLICENCIA DE DIAG25-29F00:45:04000:00:00000:00:000.0000:00:00000:00:000:00:000:00:00
44 6039ALBA SÁNCHEZ NAVASLLICENCIA DE DIAG25-29F00:45:06000:00:00000:00:000.0000:00:00000:00:000:00:000:00:00
45 6024DEBBIE EARLLLICENCIA DE DIAG45-49F00:45:16000:00:00000:00:000.0000:00:00000:00:000:00:000:00:00
46 20MONSERRAT CLAVERO SANCHEZC.N. REUS PLOMSG55-59F00:45:33000:00:00000:00:000.0000:00:00000:00:000:00:000:00:00
47 4014MARIBEL GOMEZ GARCIAC.D. FASTTRIATLONG45-49F00:45:45000:00:00000:00:000.0000:00:00000:00:000:00:000:00:00
48 5016CRISTINA GONZALEZ RAIGONLLICENCIA DE DIAG25-29F00:45:53000:00:00000:00:000.0000:00:00000:00:000:00:000:00:00
49 6074MONTSERRAT HOYOS COLELLLLICENCIA DE DIAG30-34F00:45:59000:00:00000:00:000.0000:00:00000:00:000:00:000:00:00
50 4063ALESSANDRA HUERTA DEL VECKOMANDO 226 ERSG25-29F00:46:02000:00:00000:00:000.0000:00:00000:00:000:00:000:00:00
51 5011ROSSANA MAS MARINLLICENCIA DE DIAG40-44F00:46:33000:00:00000:00:000.0000:00:00000:00:000:00:000:00:00
52 5126EVA SÁNCHEZ VALLELLICENCIA DE DIAG25-29F00:47:13000:00:00000:00:000.0000:00:00000:00:000:00:000:00:00
53 3555LILA GERSCHOVSKY RODRIGUEC.N. SABADELLG17-19F00:47:19000:00:00000:00:000.0000:00:00000:00:000:00:000:00:00
54 16ROSA MARIA MOR ABATCLUB CASTELLFOLLIT TRIATLG55-59F00:47:38000:00:00000:00:000.0000:00:00000:00:000:00:000:00:00
55 6036MARTA FORN OSSORIOLLICENCIA DE DIAG50-54F00:47:49000:00:00000:00:000.0000:00:00000:00:000:00:000:00:00
56 6107SONIA VENTOSA GARCIA-MORALLICENCIA DE DIAG25-29F00:48:19000:00:00000:00:000.0000:00:00000:00:000:00:000:00:00
57 3598ANA NAVARRO CANTOSCLUB TRIATLO BADIA DEL VAG25-29F00:48:42000:00:00000:00:000.0000:00:00000:00:000:00:000:00:00
58 4004Mº JESUS SANTOS BLANCHCLUB TRIATLO BADIA DEL VAG40-44F00:48:42000:00:00000:00:000.0000:00:00000:00:000:00:000:00:00
59 3556MARIBEL SEMPERE ARANDAC.N. SABADELLG17-19F00:48:52000:00:00000:00:000.0000:00:00000:00:000:00:000:00:00
60 6017SONIA MUNTANÉLLICENCIA DE DIAG35-39F00:48:56000:00:00000:00:000.0000:00:00000:00:000:00:000:00:00
61 3550SARA CURTO RODRIGUEZC.N. SABADELLG16-17F00:49:06000:00:00000:00:000.0000:00:00000:00:000:00:000:00:00
62 5093BEATRIZ ECHAVARRI ERASUNLLICENCIA DE DIAG35-39F00:49:14000:00:00000:00:000.0000:00:00000:00:000:00:000:00:00
63 5094MONICA ORTEGA AYALALLICENCIA DE DIAG30-34F00:49:16000:00:00000:00:000.0000:00:00000:00:000:00:000:00:00
64 6163YOLANDA VIDAL SEGUILLICENCIA DE DIAG35-39F00:49:36000:00:00000:00:000.0000:00:00000:00:000:00:000:00:00
65 5103NOÈLIA BARAJE GÜELLLLICENCIA DE DIAG35-39F00:50:44000:00:00000:00:000.0000:00:00000:00:000:00:000:00:00
66 27HAYDEE MARTORELLINDEPENDENTG40-44F00:51:37000:00:00000:00:000.0000:00:00000:00:000:00:000:00:00
67 5156LOURDES HONRADO MÁRQUEZLLICENCIA DE DIAG40-44F00:52:23000:00:00000:00:000.0000:00:00000:00:000:00:000:00:00
68 1899EMMA CASAS ADELLCLUB NATACIÓ SITGESG20-24F00:52:29000:00:00000:00:000.0000:00:00000:00:000:00:000:00:00
69 1862EUGENIA GONZALEZ TAULÉGAVA TRIATLOG40-44F00:53:05000:00:00000:00:000.0000:00:00000:00:000:00:000:00:00
70 3562MARIA DAVILA RUEDATRIATLO BCN-TRIFORFUNG50-54F00:55:27000:00:00000:00:000.0000:00:00000:00:000:00:000:00:00






FEDERACIÓ CATALANA DE TRIATLÓ
SEU CENTRAL I CORRESPONDÈNCIA: Rambla Guipúscoa 23-25 2on-D · 08018 Barcelona · Tel / Fax : 93 307 93 35
ATENCIÓ AL PÚBLIC: Passeig Joan de Borbó, 93 (Club Natació Barcelona) · 08039 Barcelona · Tel / Fax : 93 307 93 32